Time;durP1;ratioP1;P1;durP2;ratioP2;P2;SDS_P1;SDS_P2;PMS_P1;PMS_P2;Temp;Humidity;BMP_temperature;BMP_pressure;BME280_temperature;BME280_humidity;BME280_pressure;Samples;Min_cycle;Max_cycle;Signal;HPM_P1;HPM_P2
2022/11/13 00:00:27;;;;;;;21.33;17.98;;;7.40;99.90;;;;;;5081015;28;20051;-90
2022/11/13 00:02:53;;;;;;;19.77;17.77;;;7.40;99.90;;;;;;5087192;28;20048;-90
2022/11/13 00:05:19;;;;;;;18.88;16.92;;;7.50;99.90;;;;;;5088157;28;20097;-91
2022/11/13 00:07:44;;;;;;;21.40;18.08;;;7.40;99.90;;;;;;5085766;28;20036;-91
2022/11/13 00:10:10;;;;;;;21.83;18.33;;;7.40;99.90;;;;;;5082268;28;20485;-90
2022/11/13 00:12:35;;;;;;;19.80;17.73;;;7.40;99.90;;;;;;5075096;28;20044;-89
2022/11/13 00:15:01;;;;;;;20.08;17.88;;;7.40;99.90;;;;;;5086829;28;20059;-91
2022/11/13 00:17:27;;;;;;;22.10;16.98;;;7.40;99.90;;;;;;5087008;28;20600;-91
2022/11/13 00:19:54;;;;;;;20.77;16.88;;;7.40;99.90;;;;;;5074119;28;20399;-89
2022/11/13 00:22:20;;;;;;;18.83;16.80;;;7.40;99.90;;;;;;5087815;28;20119;-88
2022/11/13 00:24:46;;;;;;;20.38;16.13;;;7.40;99.90;;;;;;5080993;28;20447;-88
2022/11/13 00:27:11;;;;;;;21.85;18.10;;;7.40;99.90;;;;;;5074974;28;20040;-89
2022/11/13 00:29:37;;;;;;;20.25;16.88;;;7.40;99.90;;;;;;5088605;28;20138;-89
2022/11/13 00:32:03;;;;;;;18.00;16.10;;;7.30;99.90;;;;;;5089119;28;20075;-88
2022/11/13 00:34:29;;;;;;;21.10;17.27;;;7.30;99.90;;;;;;5084090;28;20789;-88
2022/11/13 00:36:54;;;;;;;19.15;16.48;;;7.30;99.90;;;;;;5072923;28;20048;-89
2022/11/13 00:39:20;;;;;;;18.60;16.70;;;7.30;99.90;;;;;;5079602;28;20088;-88
2022/11/13 00:41:46;;;;;;;19.75;17.05;;;7.30;99.90;;;;;;5087173;28;20371;-89
2022/11/13 00:44:11;;;;;;;20.95;17.17;;;7.30;99.90;;;;;;5085203;28;20434;-88
2022/11/13 00:46:37;;;;;;;19.65;17.55;;;7.30;99.90;;;;;;5082997;28;20028;-89
2022/11/13 00:49:03;;;;;;;19.75;17.48;;;7.30;99.90;;;;;;5088889;28;20125;-89
2022/11/13 00:51:29;;;;;;;21.00;18.30;;;7.40;99.90;;;;;;5090161;28;20036;-89
2022/11/13 00:53:54;;;;;;;21.02;18.20;;;7.40;99.90;;;;;;5079889;28;20053;-88
2022/11/13 00:56:20;;;;;;;22.25;19.33;;;7.40;99.90;;;;;;5082948;28;20048;-88
2022/11/13 00:58:46;;;;;;;22.20;19.23;;;7.50;99.90;;;;;;5084886;28;20395;-88
2022/11/13 01:01:14;;;;;;;20.50;18.33;;;7.50;99.90;;;;;;5118688;27;20123;-88
2022/11/13 01:03:40;;;;;;;20.48;18.27;;;7.50;99.90;;;;;;5117921;27;20040;-89
2022/11/13 01:06:10;;;;;;;20.90;17.83;;;7.60;99.90;;;;;;5084154;28;20064;-88
2022/11/13 01:08:35;;;;;;;22.80;18.58;;;7.60;99.90;;;;;;5067801;28;20399;-88
2022/11/13 01:11:08;;;;;;;22.58;19.20;;;7.60;99.90;;;;;;5081977;28;20036;-89
2022/11/13 01:13:33;;;;;;;21.73;18.85;;;7.60;99.90;;;;;;5113183;27;20184;-88
2022/11/13 01:16:03;;;;;;;19.95;17.55;;;7.60;99.90;;;;;;5076375;28;20148;-89
2022/11/13 01:18:28;;;;;;;20.05;17.73;;;7.60;99.90;;;;;;5074582;28;20075;-89
2022/11/13 01:21:04;;;;;;;23.05;19.30;;;7.60;99.90;;;;;;5078333;28;20464;-87
2022/11/13 01:23:30;;;;;;;21.33;18.98;;;7.60;99.90;;;;;;5069741;28;20134;-88
2022/11/13 01:26:04;;;;;;;21.58;18.77;;;7.50;99.90;;;;;;5078682;28;20122;-88
2022/11/13 01:28:30;;;;;;;21.60;18.92;;;7.60;99.90;;;;;;5084474;28;20176;-88
2022/11/13 01:30:55;;;;;;;21.30;19.00;;;7.60;99.90;;;;;;5073363;28;20567;-88
2022/11/13 01:33:21;;;;;;;21.15;18.92;;;7.50;99.90;;;;;;5101945;27;20131;-88
2022/11/13 01:35:47;;;;;;;21.48;19.10;;;7.50;99.90;;;;;;5070715;28;20047;-88
2022/11/13 01:38:12;;;;;;;20.25;18.02;;;7.60;99.90;;;;;;5083762;28;20485;-88
2022/11/13 01:40:45;;;;;;;21.25;18.92;;;7.60;99.90;;;;;;5082078;28;20101;-88
2022/11/13 01:43:24;;;;;;;20.15;18.00;;;7.60;99.90;;;;;;5078485;28;20685;-89
2022/11/13 01:46:18;;;;;;;21.60;19.25;;;7.60;99.90;;;;;;5115842;27;20134;-88
2022/11/13 01:49:07;;;;;;;22.30;18.17;;;7.60;99.90;;;;;;5083769;28;20104;-88
2022/11/13 01:51:39;;;;;;;20.77;18.55;;;7.50;99.90;;;;;;5111632;27;20069;-88
2022/11/13 01:54:10;;;;;;;21.38;19.08;;;7.50;99.90;;;;;;5078903;28;20593;-89
2022/11/13 01:56:39;;;;;;;24.85;19.58;;;7.50;99.90;;;;;;5071823;28;20472;-88
2022/11/13 01:59:19;;;;;;;22.00;19.02;;;7.50;99.90;;;;;;5086693;28;20063;-89
2022/11/13 02:01:44;;;;;;;22.30;18.67;;;7.50;99.90;;;;;;5082055;28;20152;-88
2022/11/13 02:04:10;;;;;;;22.15;19.38;;;7.50;99.90;;;;;;5077818;28;20116;-88
2022/11/13 02:06:44;;;;;;;20.77;18.52;;;7.40;99.90;;;;;;5084729;28;20105;-89
2022/11/13 02:09:10;;;;;;;21.33;18.63;;;7.40;99.90;;;;;;5116602;28;20048;-89
2022/11/13 02:11:37;;;;;;;23.60;19.27;;;7.40;99.90;;;;;;5083274;28;20040;-88
2022/11/13 02:14:05;;;;;;;22.60;19.13;;;7.30;99.90;;;;;;5078524;28;20560;-88
2022/11/13 02:16:33;;;;;;;20.98;18.48;;;7.40;99.90;;;;;;5077495;28;20047;-88
2022/11/13 02:19:02;;;;;;;20.88;17.92;;;7.40;99.90;;;;;;5074128;28;20056;-89
2022/11/13 02:21:55;;;;;;;21.92;19.63;;;7.40;99.90;;;;;;5082632;28;20483;-89
2022/11/13 02:24:26;;;;;;;22.30;19.27;;;7.40;99.90;;;;;;5067978;28;20051;-88
2022/11/13 02:26:54;;;;;;;24.23;18.88;;;7.40;99.90;;;;;;5083951;28;20055;-89
2022/11/13 02:29:20;;;;;;;21.00;18.38;;;7.30;99.90;;;;;;5086142;28;20115;-89
2022/11/13 02:31:46;;;;;;;22.42;18.85;;;7.30;99.90;;;;;;5084801;28;20052;-88
2022/11/13 02:34:11;;;;;;;21.35;19.00;;;7.30;99.90;;;;;;5117698;28;20036;-88
2022/11/13 02:36:37;;;;;;;22.90;19.48;;;7.30;99.90;;;;;;5087742;28;20116;-88
2022/11/13 02:39:08;;;;;;;22.45;19.50;;;7.30;99.90;;;;;;5079632;28;20075;-89
2022/11/13 02:41:34;;;;;;;22.40;19.20;;;7.20;99.90;;;;;;5078710;28;20055;-88
2022/11/13 02:44:00;;;;;;;21.33;18.65;;;7.30;99.90;;;;;;5078631;28;20119;-89
2022/11/13 02:46:25;;;;;;;22.20;19.60;;;7.30;99.90;;;;;;5084872;28;20487;-84
2022/11/13 02:48:51;;;;;;;23.98;20.25;;;7.30;99.90;;;;;;5087045;28;20044;-90
2022/11/13 02:51:16;;;;;;;22.25;19.67;;;7.30;99.90;;;;;;5086408;28;20040;-89
2022/11/13 02:53:42;;;;;;;23.77;19.85;;;7.30;99.90;;;;;;5086887;28;20717;-90
2022/11/13 02:56:08;;;;;;;24.00;19.27;;;7.30;99.90;;;;;;5086319;28;20044;-89
2022/11/13 02:58:33;;;;;;;21.30;18.45;;;7.30;99.90;;;;;;5089994;28;20137;-90
2022/11/13 03:01:02;;;;;;;21.63;19.33;;;7.30;99.90;;;;;;5086414;28;20544;-90
2022/11/13 03:03:28;;;;;;;22.00;19.70;;;7.30;99.90;;;;;;5088104;28;20052;-89
2022/11/13 03:05:53;;;;;;;21.38;18.45;;;7.20;99.90;;;;;;5086131;28;20051;-89
2022/11/13 03:08:19;;;;;;;22.52;18.63;;;7.20;99.90;;;;;;5086679;28;20478;-89
2022/11/13 03:10:45;;;;;;;22.83;19.52;;;7.20;99.90;;;;;;5116978;27;20052;-89
2022/11/13 03:13:11;;;;;;;21.92;18.50;;;7.20;99.90;;;;;;5099633;28;20072;-90
2022/11/13 03:15:37;;;;;;;21.83;19.45;;;7.20;99.90;;;;;;5087300;28;20093;-89
2022/11/13 03:18:06;;;;;;;21.13;18.73;;;7.10;99.90;;;;;;5107849;27;20040;-89
2022/11/13 03:20:34;;;;;;;20.73;18.35;;;7.20;99.90;;;;;;5085262;28;20044;-89
2022/11/13 03:23:01;;;;;;;20.85;18.65;;;7.10;99.90;;;;;;5082827;28;20118;-89
2022/11/13 03:25:26;;;;;;;25.08;19.05;;;7.10;99.90;;;;;;5084889;28;20491;-89
2022/11/13 03:27:52;;;;;;;21.33;18.50;;;7.10;99.90;;;;;;5084645;28;20050;-89
2022/11/13 03:30:17;;;;;;;21.02;18.73;;;7.00;99.90;;;;;;5074035;28;20055;-89
2022/11/13 03:32:43;;;;;;;21.88;19.08;;;7.00;99.90;;;;;;5086635;28;20075;-89
2022/11/13 03:35:09;;;;;;;20.83;18.35;;;7.00;99.90;;;;;;5087162;28;20722;-89
2022/11/13 03:37:34;;;;;;;26.17;18.95;;;7.00;99.90;;;;;;5086369;28;20040;-89
2022/11/13 03:40:00;;;;;;;24.20;18.50;;;7.00;99.90;;;;;;5083455;28;20135;-89
2022/11/13 03:42:25;;;;;;;22.23;18.75;;;7.00;99.90;;;;;;5086167;28;20051;-89
2022/11/13 03:44:51;;;;;;;24.40;19.60;;;6.90;99.90;;;;;;5077365;28;20048;-89
2022/11/13 03:47:17;;;;;;;22.63;20.05;;;6.90;99.90;;;;;;5079304;28;20044;-82
2022/11/13 03:49:42;;;;;;;23.00;18.73;;;6.90;99.90;;;;;;5070061;28;20036;-85
2022/11/13 03:52:08;;;;;;;21.85;19.08;;;6.90;99.90;;;;;;5083759;28;20036;-86
2022/11/13 03:54:33;;;;;;;24.15;20.23;;;6.90;99.90;;;;;;5084344;28;20503;-86
2022/11/13 03:56:59;;;;;;;25.20;19.48;;;6.90;99.90;;;;;;5085693;28;20499;-86
2022/11/13 03:59:25;;;;;;;22.45;20.05;;;6.90;99.90;;;;;;5087980;28;20565;-85
2022/11/13 04:01:50;;;;;;;22.38;19.40;;;6.90;99.90;;;;;;5086693;28;20426;-85
2022/11/13 04:04:16;;;;;;;21.83;19.52;;;6.90;99.90;;;;;;5084401;28;20078;-85
2022/11/13 04:06:42;;;;;;;23.35;20.85;;;6.90;99.90;;;;;;5085416;28;21061;-86
2022/11/13 04:09:07;;;;;;;22.52;19.92;;;6.90;99.90;;;;;;5088999;28;20039;-86
2022/11/13 04:11:33;;;;;;;21.10;18.77;;;6.90;99.90;;;;;;5086551;28;20377;-86
2022/11/13 04:13:59;;;;;;;21.17;18.85;;;6.80;99.90;;;;;;5086517;28;20709;-86
2022/11/13 04:16:24;;;;;;;23.75;18.45;;;6.80;99.90;;;;;;5075612;28;20045;-86
2022/11/13 04:18:50;;;;;;;20.98;18.77;;;6.80;99.90;;;;;;5083274;28;20043;-85
2022/11/13 04:21:15;;;;;;;23.35;19.42;;;6.70;99.90;;;;;;5091659;28;20046;-86
2022/11/13 04:23:41;;;;;;;21.58;18.83;;;6.70;99.90;;;;;;5086251;28;20483;-87
2022/11/13 04:26:07;;;;;;;24.50;19.85;;;6.70;99.90;;;;;;5083872;28;20044;-86
2022/11/13 04:28:32;;;;;;;22.33;19.58;;;6.70;99.90;;;;;;5081149;28;20037;-86
2022/11/13 04:30:58;;;;;;;21.60;18.55;;;6.60;99.90;;;;;;5117479;27;20052;-86
2022/11/13 04:33:23;;;;;;;20.17;18.08;;;6.70;99.90;;;;;;5084252;28;20051;-86
2022/11/13 04:35:49;;;;;;;22.48;19.10;;;6.60;99.90;;;;;;5078636;28;20127;-85
2022/11/13 04:38:15;;;;;;;21.38;19.08;;;6.70;99.90;;;;;;5074622;28;20116;-86
2022/11/13 04:40:41;;;;;;;23.95;19.13;;;6.70;99.90;;;;;;5086040;28;20127;-86
2022/11/13 04:43:07;;;;;;;21.45;19.15;;;6.70;99.90;;;;;;5084781;28;20527;-86
2022/11/13 04:45:33;;;;;;;21.77;19.58;;;6.70;99.90;;;;;;5070340;28;20097;-86
2022/11/13 04:47:59;;;;;;;19.95;17.85;;;6.70;99.90;;;;;;5122236;27;20067;-86
2022/11/13 04:50:24;;;;;;;23.65;18.83;;;6.70;99.90;;;;;;5071638;28;20483;-86
2022/11/13 04:52:50;;;;;;;20.90;18.70;;;6.70;99.90;;;;;;5083433;28;20044;-86
2022/11/13 04:55:16;;;;;;;24.15;19.40;;;6.70;99.90;;;;;;5088245;28;20055;-85
2022/11/13 04:57:41;;;;;;;22.30;18.65;;;6.70;99.90;;;;;;5085095;28;20039;-86
2022/11/13 05:00:09;;;;;;;21.10;18.67;;;6.70;99.90;;;;;;5083225;28;20112;-86
2022/11/13 05:02:34;;;;;;;21.13;18.58;;;6.70;99.90;;;;;;5112103;27;20086;-86
2022/11/13 05:05:00;;;;;;;20.50;18.30;;;6.70;99.90;;;;;;5097486;28;20076;-86
2022/11/13 05:07:26;;;;;;;19.35;17.20;;;6.70;99.90;;;;;;5081151;28;20047;-86
2022/11/13 05:09:52;;;;;;;21.85;17.45;;;6.60;99.90;;;;;;5114945;27;20517;-85
2022/11/13 05:12:19;;;;;;;21.35;18.10;;;6.60;99.90;;;;;;5069600;28;20048;-86
2022/11/13 05:14:44;;;;;;;21.38;17.90;;;6.60;99.90;;;;;;5082396;28;20048;-86
2022/11/13 05:17:11;;;;;;;20.20;17.95;;;6.50;99.90;;;;;;5086570;28;20039;-86
2022/11/13 05:19:37;;;;;;;18.57;16.57;;;6.40;99.90;;;;;;5117739;27;20077;-86
2022/11/13 05:22:03;;;;;;;19.50;16.40;;;6.40;99.90;;;;;;5083595;28;20309;-86
2022/11/13 05:24:29;;;;;;;20.52;18.33;;;6.40;99.90;;;;;;5076370;28;20047;-86
2022/11/13 05:26:55;;;;;;;20.67;18.00;;;6.30;99.90;;;;;;5083598;28;20050;-86
2022/11/13 05:29:20;;;;;;;20.58;18.13;;;6.30;99.90;;;;;;5085234;28;20048;-85
2022/11/13 05:31:46;;;;;;;18.20;16.25;;;6.30;99.90;;;;;;5085565;28;20036;-86
2022/11/13 05:34:12;;;;;;;21.35;17.10;;;6.30;99.90;;;;;;5071437;28;20552;-86
2022/11/13 05:36:38;;;;;;;19.55;17.10;;;6.20;99.90;;;;;;5080558;28;20087;-85
2022/11/13 05:39:04;;;;;;;18.75;16.75;;;6.20;99.90;;;;;;5078959;28;20049;-86
2022/11/13 05:41:29;;;;;;;18.98;16.48;;;6.20;99.90;;;;;;5078710;28;20039;-86
2022/11/13 05:43:56;;;;;;;20.58;17.65;;;6.20;99.90;;;;;;5085124;28;20676;-85
2022/11/13 05:46:23;;;;;;;20.52;17.80;;;6.20;99.90;;;;;;5119515;27;20058;-85
2022/11/13 05:48:59;;;;;;;;;;;6.10;99.90;;;;;;5084527;28;20046;-86
2022/11/13 05:51:30;;;;;;;18.13;15.60;;;6.10;99.90;;;;;;5083664;28;19932;-85
2022/11/13 05:53:56;;;;;;;19.30;17.13;;;6.10;99.90;;;;;;5114217;27;20048;-86
2022/11/13 05:56:23;;;;;;;20.80;17.58;;;6.10;99.90;;;;;;5119591;27;20048;-85
2022/11/13 05:58:50;;;;;;;19.63;16.58;;;6.10;99.90;;;;;;5084630;28;20040;-86
2022/11/13 06:01:34;;;;;;;20.88;17.08;;;6.10;99.90;;;;;;5117317;28;20068;-86
2022/11/13 06:04:00;;;;;;;18.75;16.75;;;6.10;99.90;;;;;;5083604;28;20082;-86
2022/11/13 06:06:27;;;;;;;21.73;17.27;;;6.20;99.90;;;;;;5112080;28;20144;-86
2022/11/13 06:08:54;;;;;;;17.80;15.57;;;6.20;99.90;;;;;;5118315;28;20040;-85
2022/11/13 06:11:22;;;;;;;20.50;17.02;;;6.20;99.90;;;;;;5084811;28;20550;-82
2022/11/13 06:13:48;;;;;;;;;;;6.20;99.90;;;;;;5125331;27;20072;-83
2022/11/13 06:16:18;;;;;;;19.07;16.53;;;6.20;99.90;;;;;;5087366;28;19924;-83
2022/11/13 06:18:44;;;;;;;21.27;16.98;;;6.30;99.90;;;;;;5125840;27;20058;-83
2022/11/13 06:21:16;;;;;;;19.57;16.77;;;6.30;99.90;;;;;;5087164;28;20364;-83
2022/11/13 06:23:42;;;;;;;20.00;16.92;;;6.30;99.90;;;;;;5077901;28;20047;-83
2022/11/13 06:26:14;;;;;;;21.42;17.48;;;6.30;99.90;;;;;;5086260;28;20044;-82
2022/11/13 06:28:40;;;;;;;22.60;17.75;;;6.40;99.90;;;;;;5070496;28;20384;-83
2022/11/13 06:31:08;;;;;;;20.52;17.58;;;6.40;99.90;;;;;;5111713;27;20052;-83
2022/11/13 06:33:34;;;;;;;21.10;17.58;;;6.40;99.90;;;;;;5083753;28;20089;-83
2022/11/13 06:36:04;;;;;;;18.90;16.88;;;6.50;99.90;;;;;;5117286;27;20037;-82
2022/11/13 06:38:32;;;;;;;22.75;17.17;;;6.50;99.90;;;;;;5116502;27;20086;-83
2022/11/13 06:40:58;;;;;;;20.52;17.42;;;6.50;99.90;;;;;;5077683;28;20040;-83
2022/11/13 06:43:24;;;;;;;19.40;16.98;;;6.50;99.90;;;;;;5089950;28;20040;-83
2022/11/13 06:45:50;;;;;;;19.02;16.67;;;6.50;99.90;;;;;;5086650;28;20376;-83
2022/11/13 06:48:15;;;;;;;21.23;18.98;;;6.50;99.90;;;;;;5077732;28;20492;-83
2022/11/13 06:50:41;;;;;;;18.98;16.50;;;6.50;99.90;;;;;;5083568;28;20044;-83
2022/11/13 06:53:06;;;;;;;19.23;17.17;;;6.50;99.90;;;;;;5084841;28;20043;-83
2022/11/13 06:55:32;;;;;;;24.13;21.83;;;6.50;99.90;;;;;;5085615;28;20052;-83
2022/11/13 06:57:58;;;;;;;25.05;22.50;;;6.40;99.90;;;;;;5088010;28;20055;-83
2022/11/13 07:00:23;;;;;;;22.95;20.63;;;6.40;99.90;;;;;;5086270;28;20063;-83
2022/11/13 07:02:49;;;;;;;19.30;17.33;;;6.40;99.90;;;;;;5071285;28;20045;-83
2022/11/13 07:05:15;;;;;;;17.85;15.82;;;6.40;99.90;;;;;;5075671;28;20036;-83
2022/11/13 07:07:41;;;;;;;19.73;17.45;;;6.40;99.90;;;;;;5078908;28;20523;-83
2022/11/13 07:10:07;;;;;;;19.25;16.80;;;6.40;99.90;;;;;;5088430;28;20512;-83
2022/11/13 07:12:33;;;;;;;23.13;17.23;;;6.40;99.90;;;;;;5074383;28;20558;-83
2022/11/13 07:14:58;;;;;;;18.80;16.80;;;6.40;99.90;;;;;;5075175;28;20047;-83
2022/11/13 07:17:24;;;;;;;17.65;15.77;;;6.40;99.90;;;;;;5084815;28;20040;-83
2022/11/13 07:19:49;;;;;;;17.88;15.98;;;6.50;99.90;;;;;;5076529;28;20059;-83
2022/11/13 07:22:15;;;;;;;19.27;16.30;;;6.50;99.90;;;;;;5085454;28;20043;-83
2022/11/13 07:24:41;;;;;;;19.67;16.80;;;6.50;99.90;;;;;;5082617;28;20135;-83
2022/11/13 07:27:07;;;;;;;18.05;15.98;;;6.50;99.90;;;;;;5087021;28;20070;-82
2022/11/13 07:29:35;;;;;;;18.13;15.75;;;6.50;99.90;;;;;;5087371;28;20550;-83
2022/11/13 07:32:00;;;;;;;18.17;15.98;;;6.50;99.90;;;;;;5081274;28;20119;-83
2022/11/13 07:34:26;;;;;;;18.63;15.43;;;6.50;99.90;;;;;;5103628;27;20174;-83
2022/11/13 07:36:52;;;;;;;18.58;16.17;;;6.50;99.90;;;;;;5081443;28;20043;-83
2022/11/13 07:39:17;;;;;;;20.77;16.52;;;6.50;99.90;;;;;;5088148;28;20119;-83
2022/11/13 07:41:43;;;;;;;18.20;16.25;;;6.60;99.90;;;;;;5084376;28;20558;-83
2022/11/13 07:44:09;;;;;;;19.65;15.93;;;6.60;99.90;;;;;;5111755;27;20043;-83
2022/11/13 07:46:34;;;;;;;18.80;16.42;;;6.60;99.90;;;;;;5072645;28;20824;-83
2022/11/13 07:49:00;;;;;;;17.05;15.18;;;6.70;99.90;;;;;;5076504;28;20302;-83
2022/11/13 07:51:25;;;;;;;19.05;16.20;;;6.70;99.90;;;;;;5084424;28;20089;-83
2022/11/13 07:53:51;;;;;;;22.27;16.75;;;6.70;99.90;;;;;;5083082;28;20162;-79
2022/11/13 07:56:17;;;;;;;18.85;16.08;;;6.80;99.90;;;;;;5086214;28;20039;-78
2022/11/13 07:58:42;;;;;;;17.17;15.32;;;6.80;99.90;;;;;;5086434;28;20048;-75
2022/11/13 08:01:09;;;;;;;17.77;15.98;;;6.90;99.90;;;;;;5117889;27;20047;-75
2022/11/13 08:03:34;;;;;;;18.20;16.33;;;6.90;99.90;;;;;;5081715;28;20084;-78
2022/11/13 08:06:06;;;;;;;19.65;15.88;;;7.00;99.90;;;;;;5075874;28;20074;-83
2022/11/13 08:08:32;;;;;;;17.00;15.20;;;7.00;99.90;;;;;;5075045;28;20540;-90
2022/11/13 08:11:01;;;;;;;18.10;16.27;;;7.10;99.90;;;;;;5084873;28;20068;-83
2022/11/13 08:13:27;;;;;;;19.33;15.75;;;7.10;99.90;;;;;;5123508;27;20560;-81
2022/11/13 08:15:52;;;;;;;16.20;14.48;;;7.20;99.90;;;;;;5086948;28;20048;-79
2022/11/13 08:18:18;;;;;;;16.83;15.10;;;7.30;99.90;;;;;;5083833;28;20040;-80
2022/11/13 08:20:44;;;;;;;18.75;16.15;;;7.30;99.90;;;;;;5085454;28;20119;-80
2022/11/13 08:23:09;;;;;;;18.20;15.45;;;7.30;99.90;;;;;;5076993;28;20075;-82
2022/11/13 08:25:35;;;;;;;18.98;16.17;;;7.40;99.90;;;;;;5083590;28;20056;-86
2022/11/13 08:28:01;;;;;;;21.10;18.27;;;7.50;99.90;;;;;;5068986;28;20040;-82
2022/11/13 08:30:27;;;;;;;17.35;15.52;;;7.50;99.90;;;;;;5116231;27;20054;-85
2022/11/13 08:32:53;;;;;;;18.52;15.73;;;7.50;99.90;;;;;;5082776;28;20040;-86
2022/11/13 08:35:19;;;;;;;18.05;16.00;;;7.50;99.90;;;;;;5073772;28;20462;-86
2022/11/13 08:37:45;;;;;;;18.92;15.63;;;7.60;99.90;;;;;;5070738;28;20086;-87
2022/11/13 08:40:11;;;;;;;17.38;15.43;;;7.60;99.90;;;;;;5085588;28;20044;-85
2022/11/13 08:42:36;;;;;;;17.85;16.00;;;7.60;99.90;;;;;;5077662;28;20088;-86
2022/11/13 08:45:03;;;;;;;16.17;14.48;;;7.70;99.90;;;;;;5075115;28;20157;-89
2022/11/13 08:47:29;;;;;;;17.30;15.50;;;7.70;99.90;;;;;;5099144;28;20502;-92
2022/11/13 08:49:55;;;;;;;17.23;15.43;;;7.70;99.90;;;;;;5079436;28;20059;-80
2022/11/13 08:52:21;;;;;;;16.90;15.20;;;7.80;99.90;;;;;;5080112;28;20552;-81
2022/11/13 08:54:47;;;;;;;17.65;15.73;;;7.80;99.90;;;;;;5083804;28;20044;-83
2022/11/13 08:57:13;;;;;;;17.67;15.77;;;7.80;99.90;;;;;;5086198;28;20156;-83
2022/11/13 08:59:38;;;;;;;18.40;16.48;;;7.90;99.90;;;;;;5088585;28;20036;-83
2022/11/13 09:02:05;;;;;;;19.42;16.23;;;7.90;99.90;;;;;;5080954;28;20037;-83
2022/11/13 09:04:33;;;;;;;18.60;15.85;;;8.00;99.90;;;;;;5085328;28;20642;-83
2022/11/13 09:06:59;;;;;;;17.27;15.52;;;8.00;99.90;;;;;;5086907;28;20119;-83
2022/11/13 09:09:24;;;;;;;17.27;15.50;;;8.00;99.90;;;;;;5086978;28;20142;-83
2022/11/13 09:11:50;;;;;;;17.88;15.93;;;8.10;99.90;;;;;;5118128;27;20495;-83
2022/11/13 09:14:15;;;;;;;16.75;15.05;;;8.10;99.90;;;;;;5088123;28;20047;-83
2022/11/13 09:16:42;;;;;;;18.42;15.65;;;8.10;99.90;;;;;;5087869;28;20040;-83
2022/11/13 09:19:07;;;;;;;17.52;15.73;;;8.10;99.90;;;;;;5084229;28;20418;-83
2022/11/13 09:21:33;;;;;;;16.90;15.05;;;8.20;99.90;;;;;;5079050;28;20059;-83
2022/11/13 09:23:59;;;;;;;17.13;15.32;;;8.20;99.90;;;;;;5073349;28;20048;-83
2022/11/13 09:26:25;;;;;;;17.30;15.40;;;8.30;99.90;;;;;;5087262;28;20048;-83
2022/11/13 09:28:51;;;;;;;16.80;15.00;;;8.30;99.90;;;;;;5070004;28;20082;-83
2022/11/13 09:31:16;;;;;;;17.05;15.35;;;8.30;99.90;;;;;;5080635;28;20048;-83
2022/11/13 09:33:42;;;;;;;18.35;16.35;;;8.40;99.90;;;;;;5084980;28;20040;-84
2022/11/13 09:36:15;;;;;;;19.77;15.63;;;8.40;99.90;;;;;;5085090;28;20040;-83
2022/11/13 09:38:40;;;;;;;25.30;16.42;;;8.40;99.90;;;;;;5086464;28;20124;-83
2022/11/13 09:41:16;;;;;;;19.55;14.98;;;8.40;99.90;;;;;;5083852;28;20169;-83
2022/11/13 09:44:05;;;;;;;18.52;15.45;;;8.40;99.90;;;;;;5086125;28;20047;-83
2022/11/13 09:46:46;;;;;;;19.95;15.85;;;8.50;99.90;;;;;;5088499;28;20115;-83
2022/11/13 09:49:24;;;;;;;16.33;14.05;;;8.50;99.90;;;;;;5082970;28;20088;-83
2022/11/13 09:51:53;;;;;;;16.95;14.55;;;8.50;99.90;;;;;;5083865;28;20130;-83
2022/11/13 09:54:19;;;;;;;17.30;14.27;;;8.60;99.90;;;;;;5085252;28;20051;-82
2022/11/13 09:57:18;;;;;;;16.23;14.40;;;8.70;99.90;;;;;;5076824;28;20052;-83
2022/11/13 09:59:51;;;;;;;16.20;14.50;;;8.70;99.90;;;;;;5069339;28;20072;-83
2022/11/13 10:02:30;;;;;;;18.42;14.35;;;8.90;99.90;;;;;;5083962;28;20532;-83
2022/11/13 10:05:26;;;;;;;14.98;13.43;;;8.90;99.90;;;;;;5082680;28;20040;-83
2022/11/13 10:08:01;;;;;;;14.57;12.93;;;9.10;99.90;;;;;;5086862;28;20119;-82
2022/11/13 10:10:46;;;;;;;14.55;12.95;;;9.20;99.90;;;;;;5087426;28;20052;-83
2022/11/13 10:13:20;;;;;;;15.15;12.45;;;9.30;99.90;;;;;;5122473;28;20058;-85
2022/11/13 10:15:50;;;;;;;13.65;12.30;;;9.30;99.90;;;;;;5075447;28;20078;-86
2022/11/13 10:18:24;;;;;;;14.48;12.40;;;9.50;99.90;;;;;;5081186;28;20134;-92
2022/11/13 10:20:56;;;;;;;13.73;12.27;;;9.60;99.90;;;;;;5086129;28;20048;-85
2022/11/13 10:23:36;;;;;;;12.35;11.15;;;9.70;99.90;;;;;;5084847;28;20036;-85
2022/11/13 10:26:14;;;;;;;12.35;11.07;;;9.80;99.90;;;;;;5065978;28;20048;-86
2022/11/13 10:28:40;;;;;;;11.80;10.57;;;9.90;99.90;;;;;;5067570;28;20040;-85
2022/11/13 10:31:09;;;;;;;11.85;10.48;;;10.00;99.90;;;;;;5111017;28;20095;-86
2022/11/13 10:33:35;;;;;;;11.40;10.18;;;10.10;99.90;;;;;;5083641;28;20779;-88
2022/11/13 10:36:01;;;;;;;11.82;10.63;;;10.10;99.90;;;;;;5083434;28;20044;-90
2022/11/13 10:38:49;;;;;;;11.35;10.25;;;10.20;99.90;;;;;;5120798;28;20376;-87
2022/11/13 10:41:17;;;;;;;11.40;10.23;;;10.30;99.90;;;;;;5088109;28;20090;-88
2022/11/13 10:44:01;;;;;;;11.82;10.55;;;10.30;99.90;;;;;;5080817;28;20048;-77
2022/11/13 10:46:31;;;;;;;11.93;10.82;;;10.40;99.90;;;;;;5085843;28;20043;-87
2022/11/13 10:49:08;;;;;;;12.13;10.65;;;10.40;99.90;;;;;;5078578;28;20767;-86
2022/11/13 10:51:35;;;;;;;11.80;10.02;;;10.50;99.90;;;;;;5071888;28;20131;-89
2022/11/13 10:54:19;;;;;;;10.88;9.73;;;10.60;99.90;;;;;;5078420;28;20048;-81
2022/11/13 10:56:59;;;;;;;10.98;9.88;;;10.70;99.90;;;;;;5073314;28;20483;-85
2022/11/13 10:59:26;;;;;;;10.50;9.45;;;10.70;99.90;;;;;;5079914;28;20045;-85
2022/11/13 11:01:52;;;;;;;10.50;9.50;;;10.80;99.90;;;;;;5081739;28;20047;-77
2022/11/13 11:04:26;;;;;;;11.02;8.95;;;10.80;99.90;;;;;;5077564;28;20044;-78
2022/11/13 11:06:53;;;;;;;9.98;8.98;;;10.90;99.90;;;;;;5080923;28;20044;-84
2022/11/13 11:09:30;;;;;;;11.20;9.30;;;10.90;99.90;;;;;;5113819;27;20078;-82
2022/11/13 11:12:14;;;;;;;10.57;9.55;;;11.10;99.90;;;;;;5086135;28;20767;-76
2022/11/13 11:14:57;;;;;;;10.95;8.77;;;11.20;99.90;;;;;;5082256;28;20444;-79
2022/11/13 11:17:29;;;;;;;9.15;8.27;;;11.20;99.90;;;;;;5077964;28;20043;-77
2022/11/13 11:20:00;;;;;;;9.98;8.98;;;11.20;99.90;;;;;;5088806;28;20116;-80
2022/11/13 11:22:31;;;;;;;11.30;8.32;;;11.30;99.90;;;;;;5078797;28;20467;-80
2022/11/13 11:25:04;;;;;;;10.73;9.05;;;11.30;99.90;;;;;;5082618;28;20528;-77
2022/11/13 11:27:46;;;;;;;10.00;8.93;;;11.40;99.90;;;;;;5074608;28;20070;-92
2022/11/13 11:30:28;;;;;;;8.77;7.97;;;11.50;99.90;;;;;;5077229;28;20044;-85
2022/11/13 11:33:14;;;;;;;10.13;7.90;;;11.50;99.90;;;;;;5077888;28;20047;-89
2022/11/13 11:35:43;;;;;;;10.43;8.32;;;11.60;99.90;;;;;;5074090;28;20040;-88
2022/11/13 11:38:29;;;;;;;9.57;8.57;;;11.60;99.90;;;;;;5082714;28;20071;-86
2022/11/13 11:41:08;;;;;;;9.77;8.77;;;11.70;99.90;;;;;;5084568;28;20067;-82
2022/11/13 11:43:47;;;;;;;8.98;8.13;;;11.80;99.90;;;;;;5085435;28;20099;-77
2022/11/13 11:46:16;;;;;;;10.25;8.32;;;11.80;99.90;;;;;;5076330;28;20074;-75
2022/11/13 11:48:42;;;;;;;9.30;8.00;;;11.80;99.90;;;;;;5088065;28;20056;-75
2022/11/13 11:51:42;;;;;;;13.07;8.07;;;11.80;99.90;;;;;;5087326;28;20085;-85
2022/11/13 11:54:10;;;;;;;9.18;8.15;;;11.90;99.90;;;;;;5074865;28;20509;-84
2022/11/13 11:56:47;;;;;;;10.18;8.55;;;11.90;99.90;;;;;;5074111;28;20076;-84
2022/11/13 11:59:44;;;;;;;9.43;7.80;;;12.00;99.90;;;;;;5078356;28;20059;-85
2022/11/13 12:02:22;;;;;;;;;;;12.00;99.90;;;;;;5087604;28;20403;-82
2022/11/13 12:05:00;;;;;;;7.88;7.07;;;12.10;99.90;;;;;;5078101;28;19920;-87
2022/11/13 12:07:29;;;;;;;8.13;7.32;;;12.10;99.90;;;;;;5080205;28;20080;-84
2022/11/13 12:10:16;;;;;;;8.18;7.22;;;12.20;99.90;;;;;;5084225;28;20036;-87
2022/11/13 12:12:57;;;;;;;9.68;6.70;;;12.30;99.90;;;;;;5088696;28;20036;-82
2022/11/13 12:15:41;;;;;;;7.43;6.63;;;12.30;99.90;;;;;;5082770;28;20042;-86
2022/11/13 12:18:35;;;;;;;6.55;5.72;;;12.40;99.90;;;;;;5083852;28;21453;-81
2022/11/13 12:21:01;;;;;;;7.45;4.82;;;12.50;99.90;;;;;;5079127;28;20128;-84
2022/11/13 12:23:38;;;;;;;7.00;5.20;;;12.50;99.90;;;;;;5083213;28;20106;-81
2022/11/13 12:26:33;;;;;;;7.50;5.10;;;12.60;99.90;;;;;;5081216;28;20542;-79
2022/11/13 12:29:18;;;;;;;7.40;5.32;;;12.60;99.90;;;;;;5076725;28;20403;-78
2022/11/13 12:31:49;;;;;;;7.38;5.93;;;12.70;99.90;;;;;;5087431;28;20669;-79
2022/11/13 12:34:32;;;;;;;7.13;5.60;;;12.70;99.90;;;;;;5085801;28;20044;-79
2022/11/13 12:37:00;;;;;;;6.80;5.75;;;12.80;99.90;;;;;;5077559;28;20055;-79
2022/11/13 12:39:38;;;;;;;6.65;5.57;;;12.80;99.90;;;;;;5088877;28;20062;-85
2022/11/13 12:42:24;;;;;;;8.32;5.25;;;12.80;99.90;;;;;;5086444;28;20491;-84
2022/11/13 12:44:59;;;;;;;6.30;5.17;;;12.90;99.90;;;;;;5082384;28;20625;-84
2022/11/13 12:47:25;;;;;;;7.13;4.80;;;12.90;99.90;;;;;;5081623;28;20309;-83